createdAt,value
2018-05-23T00:01:25.403Z,16.80
2018-05-23T00:03:55.935Z,16.70
2018-05-23T00:06:25.665Z,16.60
2018-05-23T00:08:55.579Z,16.60
2018-05-23T00:11:25.243Z,16.60
2018-05-23T00:13:54.922Z,16.60
2018-05-23T00:16:24.595Z,16.50
2018-05-23T00:18:54.279Z,16.50
2018-05-23T00:21:24.708Z,16.50
2018-05-23T00:23:55.161Z,16.50
2018-05-23T00:26:24.827Z,16.50
2018-05-23T00:28:54.511Z,16.50
2018-05-23T00:31:24.179Z,16.40
2018-05-23T00:33:53.868Z,16.50
2018-05-23T00:36:24.296Z,16.40
2018-05-23T00:38:54.743Z,16.40
2018-05-23T00:41:24.415Z,16.30
2018-05-23T00:43:58.035Z,16.40
2018-05-23T00:46:28.465Z,16.40
2018-05-23T00:48:58.912Z,16.40
2018-05-23T00:51:28.583Z,16.40
2018-05-23T00:53:58.267Z,16.40
2018-05-23T00:56:27.953Z,16.40
2018-05-23T00:58:57.610Z,16.40
2018-05-23T01:01:28.071Z,16.30
2018-05-23T01:03:57.763Z,16.30
2018-05-23T01:06:28.205Z,16.30
2018-05-23T01:08:57.886Z,16.20
2018-05-23T01:11:28.340Z,16.40
2018-05-23T01:13:57.995Z,16.40
2018-05-23T01:16:27.695Z,16.40
2018-05-23T01:18:57.383Z,16.40
2018-05-23T01:21:27.090Z,16.40
2018-05-23T01:23:57.182Z,16.40
2018-05-23T01:26:26.879Z,16.30
2018-05-23T01:28:56.568Z,16.40
2018-05-23T01:31:26.259Z,16.40
2018-05-23T01:33:55.949Z,16.40
2018-05-23T01:36:25.664Z,16.40
2018-05-23T01:38:55.367Z,16.40
2018-05-23T01:41:25.087Z,16.40
2018-05-23T01:43:54.788Z,16.30
2018-05-23T01:46:24.499Z,16.30
2018-05-23T01:49:05.559Z,16.20
2018-05-23T01:51:35.277Z,16.20
2018-05-23T01:54:04.967Z,16.20
2018-05-23T01:56:34.696Z,16.20
2018-05-23T01:59:04.055Z,16.20
2018-05-23T02:01:33.775Z,16.20
2018-05-23T02:04:03.466Z,16.20
2018-05-23T02:06:33.947Z,16.20
2018-05-23T02:09:07.459Z,16.10
2018-05-23T02:11:37.214Z,16.20
2018-05-23T02:14:06.924Z,16.20
2018-05-23T02:16:36.673Z,16.20
2018-05-23T02:19:06.386Z,16.20
2018-05-23T02:21:36.124Z,16.30
2018-05-23T02:24:05.834Z,16.30
2018-05-23T02:26:35.577Z,16.30
2018-05-23T02:29:05.300Z,16.20
2018-05-23T02:31:35.041Z,16.20
2018-05-23T02:34:08.465Z,16.20
2018-05-23T02:36:38.213Z,16.20
2018-05-23T02:39:07.928Z,16.10
2018-05-23T02:41:37.668Z,16.10
2018-05-23T02:44:07.391Z,16.20
2018-05-23T02:46:37.141Z,16.20
2018-05-23T02:49:06.184Z,16.20
2018-05-23T02:51:35.939Z,16.20
2018-05-23T02:54:06.427Z,16.20
2018-05-23T02:56:36.166Z,16.20
2018-05-23T02:59:05.885Z,16.20
2018-05-23T03:01:35.686Z,16.10
2018-05-23T03:04:05.401Z,16.10
2018-05-23T03:06:35.164Z,16.10
2018-05-23T03:09:03.987Z,16.00
2018-05-23T03:11:33.717Z,16.00
2018-05-23T03:14:03.429Z,16.00
2018-05-23T03:16:33.176Z,16.00
2018-05-23T03:19:02.555Z,16.10
2018-05-23T03:21:32.269Z,16.10
2018-05-23T03:24:02.793Z,16.10
2018-05-23T03:26:32.558Z,16.10
2018-05-23T03:29:02.278Z,16.00
2018-05-23T03:31:32.827Z,16.10
2018-05-23T03:34:02.568Z,16.00
2018-05-23T03:36:32.283Z,16.10
2018-05-23T03:39:02.001Z,16.10
2018-05-23T03:41:31.711Z,16.10
2018-05-23T03:44:01.419Z,16.00
2018-05-23T03:46:31.139Z,16.00
2018-05-23T03:49:00.841Z,16.00
2018-05-23T03:51:30.562Z,16.00
2018-05-23T03:54:00.248Z,16.00
2018-05-23T03:56:29.967Z,15.90
2018-05-23T03:58:59.668Z,15.90
2018-05-23T04:01:40.504Z,15.90
2018-05-23T04:04:21.503Z,15.90
2018-05-23T04:10:01.343Z,16.00
2018-05-23T04:12:31.071Z,16.00
2018-05-23T04:15:01.064Z,16.00
2018-05-23T04:17:30.832Z,16.10
2018-05-23T04:20:00.531Z,16.00
2018-05-23T04:22:30.256Z,16.00
2018-05-23T04:24:59.997Z,16.00
2018-05-23T04:27:30.681Z,16.10
2018-05-23T04:30:00.379Z,16.00
2018-05-23T04:32:30.100Z,16.10
2018-05-23T04:34:59.800Z,16.10
2018-05-23T04:37:29.536Z,16.00
2018-05-23T04:39:59.255Z,16.10
2018-05-23T04:42:28.983Z,16.10
2018-05-23T04:44:58.703Z,16.10
2018-05-23T04:47:28.107Z,16.10
2018-05-23T04:49:58.090Z,16.10
2018-05-23T04:52:27.818Z,16.20
2018-05-23T04:54:57.549Z,16.20
2018-05-23T04:57:27.280Z,16.20
2018-05-23T04:59:57.010Z,16.30
2018-05-23T05:02:26.698Z,16.30
2018-05-23T05:04:57.266Z,16.30
2018-05-23T05:07:26.956Z,16.30
2018-05-23T05:09:57.977Z,16.30
2018-05-23T05:12:27.788Z,16.40
2018-05-23T05:14:57.533Z,16.30
2018-05-23T05:17:29.015Z,16.30
2018-05-23T05:19:59.531Z,16.30
2018-05-23T05:22:29.203Z,16.20
2018-05-23T05:24:58.965Z,16.30
2018-05-23T05:27:28.856Z,16.40
2018-05-23T05:29:58.255Z,16.40
2018-05-23T05:32:27.988Z,16.40
2018-05-23T05:34:57.715Z,16.40
2018-05-23T05:37:27.435Z,16.50
2018-05-23T05:39:57.248Z,16.50
2018-05-23T05:42:26.956Z,16.60
2018-05-23T05:44:56.677Z,16.60
2018-05-23T05:47:26.583Z,16.60
2018-05-23T05:49:56.316Z,16.60
2018-05-23T05:52:25.999Z,16.50
2018-05-23T05:54:55.728Z,16.50
2018-05-23T05:57:25.440Z,16.60
2018-05-23T05:59:55.152Z,16.60
2018-05-23T06:02:24.868Z,16.70
2018-05-23T06:04:54.256Z,16.70
2018-05-23T06:07:23.956Z,16.70
2018-05-23T06:09:53.734Z,16.70
2018-05-23T06:12:23.587Z,16.70
2018-05-23T06:14:53.320Z,16.70
2018-05-23T06:17:22.994Z,16.70
2018-05-23T06:19:52.727Z,16.70
2018-05-23T06:22:22.486Z,16.70
2018-05-23T06:24:52.373Z,16.80
2018-05-23T06:27:22.114Z,16.70
2018-05-23T06:29:51.844Z,16.70
2018-05-23T06:32:21.559Z,16.60
2018-05-23T06:34:51.280Z,16.60
2018-05-23T06:37:20.983Z,16.60
2018-05-23T06:39:50.700Z,16.60
2018-05-23T06:42:20.411Z,16.60
2018-05-23T06:44:50.187Z,16.70
2018-05-23T06:47:19.855Z,16.70
2018-05-23T06:49:49.538Z,16.70
2018-05-23T06:52:19.211Z,16.70
2018-05-23T06:54:49.678Z,16.80
2018-05-23T06:57:19.347Z,16.80
2018-05-23T06:59:49.040Z,16.80
2018-05-23T07:02:18.732Z,16.80
2018-05-23T07:04:48.418Z,16.70
2018-05-23T07:07:18.079Z,16.80
2018-05-23T07:09:47.763Z,16.80
2018-05-23T07:12:17.610Z,16.90
2018-05-23T07:14:48.237Z,17.50
2018-05-23T07:17:18.031Z,17.40
2018-05-23T07:19:48.105Z,17.70
2018-05-23T07:22:18.523Z,17.60
2018-05-23T07:24:48.373Z,17.60
2018-05-23T07:27:18.142Z,17.60
2018-05-23T07:29:48.131Z,17.70
2018-05-23T07:32:17.793Z,17.80
2018-05-23T07:34:47.493Z,17.90
2018-05-23T07:37:17.990Z,17.90
2018-05-23T07:39:48.461Z,18.00
2018-05-23T07:42:18.226Z,18.00
2018-05-23T07:44:47.896Z,18.10
2018-05-23T07:47:17.562Z,18.10
2018-05-23T07:49:47.243Z,18.30
2018-05-23T07:52:16.907Z,18.50
2018-05-23T07:54:46.619Z,18.70
2018-05-23T07:57:16.279Z,18.90
2018-05-23T07:59:46.064Z,19.10
2018-05-23T08:02:15.769Z,19.20
2018-05-23T08:04:45.459Z,19.20
2018-05-23T08:07:15.783Z,19.30
2018-05-23T08:09:45.545Z,19.30
2018-05-23T08:12:16.020Z,19.30
2018-05-23T08:14:46.455Z,19.20
2018-05-23T08:17:16.284Z,19.20
2018-05-23T08:19:45.951Z,19.20
2018-05-23T08:22:15.648Z,19.10
2018-05-23T08:24:45.467Z,19.00
2018-05-23T08:27:15.347Z,19.00
2018-05-23T08:29:45.995Z,19.10
2018-05-23T08:32:15.916Z,19.10
2018-05-23T08:34:51.954Z,19.00
2018-05-23T08:37:22.411Z,19.00
2018-05-23T08:39:52.263Z,19.00
2018-05-23T08:42:21.963Z,19.00
2018-05-23T08:44:51.635Z,19.10
2018-05-23T08:47:21.379Z,19.10
2018-05-23T08:49:51.051Z,19.10
2018-05-23T08:52:20.744Z,19.20
2018-05-23T08:54:51.166Z,19.30
2018-05-23T08:57:21.620Z,19.30
2018-05-23T08:59:51.295Z,19.30
2018-05-23T09:02:21.125Z,19.30
2018-05-23T09:04:51.583Z,19.40
2018-05-23T09:07:22.208Z,19.50
2018-05-23T09:09:51.867Z,19.40
2018-05-23T09:12:21.581Z,19.40
2018-05-23T09:14:51.419Z,19.40
2018-05-23T09:17:21.112Z,19.40
2018-05-23T09:19:51.548Z,19.70
2018-05-23T09:22:21.995Z,19.80
2018-05-23T09:24:51.668Z,19.70
2018-05-23T09:27:21.900Z,19.90
2018-05-23T09:29:55.579Z,20.00
2018-05-23T09:32:24.931Z,20.00
2018-05-23T09:34:54.602Z,20.00
2018-05-23T09:37:25.062Z,20.30
2018-05-23T09:39:54.729Z,20.20
2018-05-23T09:42:24.415Z,20.30
2018-05-23T09:44:54.095Z,20.30
2018-05-23T09:47:23.784Z,20.40
2018-05-23T09:49:53.448Z,20.40
2018-05-23T09:52:23.126Z,20.40
2018-05-23T09:54:52.800Z,20.30
2018-05-23T09:57:22.504Z,20.20
2018-05-23T09:59:52.930Z,20.30
2018-05-23T10:02:23.383Z,20.50
2018-05-23T10:04:53.052Z,20.50
2018-05-23T10:07:22.738Z,20.60
2018-05-23T10:09:52.410Z,20.60
2018-05-23T10:12:22.103Z,20.70
2018-05-23T10:14:52.559Z,21.00
2018-05-23T10:17:23.183Z,21.10
2018-05-23T10:19:52.854Z,21.00
2018-05-23T10:22:23.323Z,21.30
2018-05-23T10:24:52.996Z,21.30
2018-05-23T10:27:23.461Z,21.50
2018-05-23T10:29:53.127Z,21.50
2018-05-23T10:32:23.112Z,21.50
2018-05-23T10:34:52.779Z,21.60
2018-05-23T10:37:22.472Z,21.60
2018-05-23T10:39:52.955Z,21.70
2018-05-23T10:42:22.631Z,21.70
2018-05-23T10:44:52.301Z,21.70
2018-05-23T10:47:21.987Z,21.70
2018-05-23T10:49:51.648Z,21.80
2018-05-23T10:52:21.331Z,21.80
2018-05-23T10:54:51.776Z,21.60
2018-05-23T10:57:22.222Z,21.60
2018-05-23T10:59:51.900Z,21.50
2018-05-23T11:02:27.883Z,21.60
2018-05-23T11:04:57.612Z,21.60
2018-05-23T11:07:27.331Z,21.80
2018-05-23T11:09:56.997Z,21.90
2018-05-23T11:12:27.451Z,22.20
2018-05-23T11:14:57.124Z,22.10
2018-05-23T11:17:27.570Z,21.90
2018-05-23T11:19:57.249Z,21.90
2018-05-23T11:22:27.749Z,21.80
2018-05-23T11:24:57.443Z,21.80
2018-05-23T11:27:27.127Z,21.80
2018-05-23T11:29:56.792Z,21.90
2018-05-23T11:32:26.479Z,21.90
2018-05-23T11:34:56.151Z,22.00
2018-05-23T11:37:25.850Z,22.00
2018-05-23T11:39:56.279Z,21.80
2018-05-23T11:42:26.727Z,21.70
2018-05-23T11:44:56.440Z,21.70
2018-05-23T11:47:26.135Z,21.80
2018-05-23T11:49:55.803Z,21.90
2018-05-23T11:52:25.487Z,21.80
2018-05-23T11:54:55.159Z,21.90
2018-05-23T11:57:24.832Z,21.90
2018-05-23T11:59:54.508Z,22.00
2018-05-23T12:02:24.167Z,22.00
2018-05-23T12:04:54.615Z,21.80
2018-05-23T12:07:24.267Z,21.70
2018-05-23T12:09:53.959Z,21.60
2018-05-23T12:12:23.615Z,21.60
2018-05-23T12:14:54.075Z,21.30
2018-05-23T12:17:23.519Z,21.30
2018-05-23T12:19:53.215Z,21.20
2018-05-23T12:22:22.884Z,21.10
2018-05-23T12:24:52.576Z,21.10
2018-05-23T12:27:22.566Z,21.20
2018-05-23T12:29:52.274Z,21.40
2018-05-23T12:32:21.955Z,21.50
2018-05-23T12:34:51.651Z,21.60
2018-05-23T12:37:21.328Z,21.70
2018-05-23T12:39:51.826Z,22.20
2018-05-23T12:42:21.494Z,22.20
2018-05-23T12:44:57.555Z,22.20
2018-05-23T12:47:27.231Z,22.10
2018-05-23T12:49:57.683Z,21.90
2018-05-23T12:52:27.351Z,21.80
2018-05-23T12:55:02.659Z,21.60
2018-05-23T12:57:32.317Z,21.50
2018-05-23T13:00:02.767Z,21.30
2018-05-23T13:02:32.431Z,21.20
2018-05-23T13:05:02.116Z,21.30
2018-05-23T13:07:31.763Z,21.40
2018-05-23T13:10:01.464Z,21.60
2018-05-23T13:12:31.973Z,21.80
2018-05-23T13:15:02.555Z,21.80
2018-05-23T13:17:32.983Z,21.80
2018-05-23T13:20:02.675Z,21.80
2018-05-23T13:22:33.107Z,21.90
2018-05-23T13:25:02.812Z,21.90
2018-05-23T13:27:33.231Z,22.20
2018-05-23T13:30:03.678Z,22.40
2018-05-23T13:32:33.351Z,22.40
2018-05-23T13:35:03.475Z,22.80
2018-05-23T13:37:33.918Z,22.70
2018-05-23T13:40:03.615Z,22.70
2018-05-23T13:42:34.062Z,22.60
2018-05-23T13:45:03.418Z,22.60
2018-05-23T13:47:33.087Z,22.40
2018-05-23T13:50:02.782Z,22.40
2018-05-23T13:52:33.204Z,22.30
2018-05-23T13:55:02.916Z,22.20
2018-05-23T13:57:33.658Z,22.20
2018-05-23T14:00:03.179Z,22.10
2018-05-23T14:02:33.673Z,22.20
2018-05-23T14:05:03.847Z,22.10
2018-05-23T14:07:33.529Z,22.10
2018-05-23T14:10:03.825Z,22.10
2018-05-23T14:12:34.264Z,22.10
2018-05-23T14:15:04.036Z,22.00
2018-05-23T14:17:33.863Z,22.00
2018-05-23T14:20:03.666Z,21.90
2018-05-23T14:22:34.112Z,21.80
2018-05-23T14:25:03.482Z,21.80
2018-05-23T14:27:33.352Z,21.80
2018-05-23T14:30:03.051Z,21.70
2018-05-23T14:32:32.715Z,21.70
2018-05-23T14:35:02.416Z,21.70
2018-05-23T14:37:32.079Z,21.70
2018-05-23T14:40:01.811Z,21.70
2018-05-23T14:42:31.512Z,21.70
2018-05-23T14:45:01.191Z,21.70
2018-05-23T14:47:30.927Z,21.80
2018-05-23T14:50:00.679Z,21.80
2018-05-23T14:52:30.822Z,21.80
2018-05-23T14:55:00.579Z,21.80
2018-05-23T14:57:30.227Z,21.90
2018-05-23T14:59:59.985Z,21.90
2018-05-23T15:02:29.922Z,21.90
2018-05-23T15:04:59.822Z,22.00
2018-05-23T15:07:29.495Z,22.00
2018-05-23T15:09:59.166Z,22.10
2018-05-23T15:12:28.843Z,22.00
2018-05-23T15:14:58.538Z,21.90
2018-05-23T15:17:28.214Z,21.90
2018-05-23T15:19:57.982Z,21.80
2018-05-23T15:22:27.790Z,21.90
2018-05-23T15:24:57.696Z,21.90
2018-05-23T15:27:27.683Z,21.80
2018-05-23T15:29:58.147Z,21.80
2018-05-23T15:32:27.895Z,21.80
2018-05-23T15:34:57.628Z,21.80
2018-05-23T15:37:28.066Z,21.90
2018-05-23T15:39:57.771Z,21.90
2018-05-23T15:42:27.521Z,22.00
2018-05-23T15:44:58.132Z,22.00
2018-05-23T15:47:27.823Z,21.90
2018-05-23T15:49:57.192Z,21.90
2018-05-23T15:52:26.895Z,21.80
2018-05-23T15:54:56.575Z,21.80
2018-05-23T15:57:26.267Z,21.80
2018-05-23T15:59:55.955Z,21.80
2018-05-23T16:02:26.427Z,22.00
2018-05-23T16:04:56.872Z,21.90
2018-05-23T16:07:26.575Z,21.80
2018-05-23T16:09:56.260Z,21.80
2018-05-23T16:12:26.015Z,21.80
2018-05-23T16:14:55.754Z,21.80
2018-05-23T16:17:25.603Z,21.80
2018-05-23T16:19:55.273Z,21.80
2018-05-23T16:22:24.963Z,21.80
2018-05-23T16:24:55.035Z,21.80
2018-05-23T16:27:24.751Z,21.80
2018-05-23T16:29:54.426Z,21.70
2018-05-23T16:32:24.126Z,21.80
2018-05-23T16:34:54.555Z,21.80
2018-05-23T16:37:24.251Z,21.70
2018-05-23T16:39:53.916Z,21.80
2018-05-23T16:42:23.627Z,21.90
2018-05-23T16:44:53.291Z,21.90
2018-05-23T16:47:23.739Z,22.10
2018-05-23T16:49:53.472Z,22.10
2018-05-23T16:52:24.175Z,22.10
2018-05-23T16:54:53.865Z,22.10
2018-05-23T16:57:24.323Z,22.20
2018-05-23T16:59:53.979Z,22.10
2018-05-23T17:02:23.650Z,22.20
2018-05-23T17:04:53.306Z,22.20
2018-05-23T17:07:23.832Z,22.10
2018-05-23T17:09:53.635Z,22.00
2018-05-23T17:12:23.377Z,21.90
2018-05-23T17:14:53.179Z,21.80
2018-05-23T17:17:23.640Z,21.80
2018-05-23T17:19:53.302Z,21.70
2018-05-23T17:22:23.027Z,21.70
2018-05-23T17:24:52.712Z,21.50
2018-05-23T17:27:22.401Z,21.50
2018-05-23T17:29:52.099Z,21.40
2018-05-23T17:32:21.803Z,21.40
2018-05-23T17:34:51.482Z,21.40
2018-05-23T17:37:21.175Z,21.30
2018-05-23T17:39:51.608Z,21.30
2018-05-23T17:42:22.069Z,21.30
2018-05-23T17:44:51.759Z,21.20
2018-05-23T17:47:21.435Z,21.20
2018-05-23T17:49:51.108Z,21.20
2018-05-23T17:52:20.791Z,21.20
2018-05-23T17:54:51.235Z,21.20
2018-05-23T17:57:20.933Z,21.10
2018-05-23T17:59:50.590Z,21.20
2018-05-23T18:02:20.308Z,21.30
2018-05-23T18:04:50.008Z,21.30
2018-05-23T18:07:19.700Z,21.30
2018-05-23T18:09:49.374Z,21.20
2018-05-23T18:12:19.131Z,21.10
2018-05-23T18:14:49.716Z,21.00
2018-05-23T18:17:19.411Z,20.90
2018-05-23T18:19:49.095Z,21.00
2018-05-23T18:22:19.594Z,21.00
2018-05-23T18:24:49.646Z,21.00
2018-05-23T18:27:19.309Z,21.00
2018-05-23T18:29:49.004Z,21.00
2018-05-23T18:32:18.700Z,20.90
2018-05-23T18:34:48.896Z,20.90
2018-05-23T18:37:19.066Z,20.80
2018-05-23T18:39:48.751Z,20.70
2018-05-23T18:42:18.415Z,20.70
2018-05-23T18:44:48.883Z,20.40
2018-05-23T18:47:18.595Z,20.30
2018-05-23T18:49:48.287Z,20.30
2018-05-23T18:52:18.726Z,20.30
2018-05-23T18:54:48.423Z,20.30
2018-05-23T18:57:18.871Z,20.20
2018-05-23T18:59:48.553Z,20.20
2018-05-23T19:02:18.992Z,20.10
2018-05-23T19:04:49.439Z,20.00
2018-05-23T19:07:19.107Z,20.00
2018-05-23T19:09:49.568Z,19.90
2018-05-23T19:12:19.224Z,19.80
2018-05-23T19:14:48.907Z,19.70
2018-05-23T19:17:18.572Z,19.70
2018-05-23T19:19:49.133Z,19.60
2018-05-23T19:22:18.895Z,19.60
2018-05-23T19:24:49.350Z,19.60
2018-05-23T19:27:19.012Z,19.50
2018-05-23T19:29:48.700Z,19.50
2018-05-23T19:32:18.364Z,19.50
2018-05-23T19:34:48.815Z,19.40
2018-05-23T19:37:18.487Z,19.30
2018-05-23T19:39:48.945Z,19.30
2018-05-23T19:42:18.840Z,19.30
2018-05-23T19:44:49.286Z,19.10
2018-05-23T19:47:18.983Z,19.00
2018-05-23T19:49:48.851Z,19.10
2018-05-23T19:52:18.523Z,19.10
2018-05-23T19:54:48.205Z,19.10
2018-05-23T19:57:18.412Z,19.10
2018-05-23T19:59:48.095Z,19.00
2018-05-23T20:02:17.770Z,19.10
2018-05-23T20:04:47.451Z,19.10
2018-05-23T20:07:17.883Z,19.00
2018-05-23T20:09:48.339Z,19.00
2018-05-23T20:12:17.999Z,18.90
2018-05-23T20:14:47.682Z,19.00
2018-05-23T20:17:17.359Z,18.90
2018-05-23T20:19:47.040Z,18.90
2018-05-23T20:22:17.472Z,18.80
2018-05-23T20:24:47.919Z,18.80
2018-05-23T20:27:17.588Z,18.70
2018-05-23T20:29:48.042Z,18.70
2018-05-23T20:32:17.711Z,18.70
2018-05-23T20:34:47.387Z,18.70
2018-05-23T20:37:17.342Z,18.60
2018-05-23T20:39:47.049Z,18.60
2018-05-23T20:42:16.750Z,18.60
2018-05-23T20:44:52.234Z,18.50
2018-05-23T20:47:21.934Z,18.50
2018-05-23T20:49:52.383Z,18.40
2018-05-23T20:52:22.044Z,18.40
2018-05-23T20:54:56.903Z,18.40
2018-05-23T20:57:27.365Z,18.30
2018-05-23T20:59:57.104Z,18.30
2018-05-23T21:02:26.759Z,18.30
2018-05-23T21:04:56.459Z,18.30
2018-05-23T21:07:26.125Z,18.30
2018-05-23T21:09:55.824Z,18.30
2018-05-23T21:12:25.691Z,18.20
2018-05-23T21:15:01.075Z,18.20
2018-05-23T21:17:30.772Z,18.20
2018-05-23T21:20:00.803Z,18.20
2018-05-23T21:22:30.847Z,18.20
2018-05-23T21:25:00.666Z,18.20
2018-05-23T21:27:31.238Z,18.20
2018-05-23T21:30:01.098Z,18.20
2018-05-23T21:32:30.891Z,18.20
2018-05-23T21:35:00.563Z,18.20
2018-05-23T21:37:30.259Z,18.20
2018-05-23T21:39:59.948Z,18.10
2018-05-23T21:42:29.641Z,18.10
2018-05-23T21:44:59.303Z,18.10
2018-05-23T21:47:29.007Z,18.10
2018-05-23T21:49:58.670Z,18.10
2018-05-23T21:52:28.379Z,18.10
2018-05-23T21:54:58.893Z,18.00
2018-05-23T21:57:28.594Z,18.00
2018-05-23T21:59:58.274Z,18.10
2018-05-23T22:02:27.986Z,18.00
2018-05-23T22:05:04.031Z,18.00
2018-05-23T22:07:33.519Z,18.00
2018-05-23T22:10:03.207Z,17.80
2018-05-23T22:12:33.690Z,17.80
2018-05-23T22:15:03.372Z,17.80
2018-05-23T22:17:33.084Z,17.80
2018-05-23T22:20:02.783Z,17.70
2018-05-23T22:22:32.503Z,17.70
2018-05-23T22:25:02.195Z,17.80
2018-05-23T22:27:31.686Z,17.70
2018-05-23T22:30:02.159Z,17.70
2018-05-23T22:32:31.880Z,17.60
2018-05-23T22:35:01.580Z,17.70
2018-05-23T22:37:31.290Z,17.70
2018-05-23T22:40:01.002Z,17.60
2018-05-23T22:42:30.710Z,17.70
2018-05-23T22:45:00.407Z,17.70
2018-05-23T22:47:30.131Z,17.70
2018-05-23T22:49:59.822Z,17.70
2018-05-23T22:52:29.542Z,17.60
2018-05-23T22:54:59.239Z,17.70
2018-05-23T22:57:28.962Z,17.70
2018-05-23T22:59:58.659Z,17.70
2018-05-23T23:02:28.386Z,17.70
2018-05-23T23:04:58.091Z,17.70
2018-05-23T23:07:27.807Z,17.70
2018-05-23T23:09:58.300Z,17.70
2018-05-23T23:12:28.762Z,17.70
2018-05-23T23:14:58.475Z,17.70
2018-05-23T23:17:27.835Z,17.70
2018-05-23T23:19:58.319Z,17.60
2018-05-23T23:22:43.431Z,17.50
2018-05-23T23:25:13.904Z,17.70
2018-05-23T23:27:43.943Z,17.60
2018-05-23T23:30:13.814Z,17.70
2018-05-23T23:32:43.799Z,17.70
2018-05-23T23:35:14.279Z,17.70
2018-05-23T23:37:44.267Z,17.70
2018-05-23T23:40:14.287Z,17.70
2018-05-23T23:42:43.979Z,17.70
2018-05-23T23:45:13.694Z,17.70
2018-05-23T23:47:43.394Z,17.70
2018-05-23T23:50:13.110Z,17.70
2018-05-23T23:52:42.811Z,17.70
2018-05-23T23:55:13.307Z,17.60
2018-05-23T23:57:42.995Z,17.60
